Search for airport 
image banner adimage banner adimage banner ad
image banner ad

CN88 - Kaiser Medical Center Vacaville

Located in Vacaville, United States

ICAO - CN88, IATA -

Data provided by Airmate  

General information

Coordinates: N38°23'20" W121°56'26"
Elevation is 100 feet MSL.
 
View others Airports in California

Operational data

Special qualification required
Current time UTC:
Current local time:
Weather at : KVCB - Nut Tree ( 2 km )
METAR: KVCB 141153Z AUTO 22008KT 10SM CLR 18/16 A2998 RMK AO2 SLP150 T01830156 10206 20178 53002 $
View NOTAMs / SUP AIP / TFR affecting this airport [VIEW]
Communications frequencies: [VIEW]

Runways:

Airport contact information

Address: Vacaville United States

Satellite view of CN88